Time;durP1;ratioP1;P1;durP2;ratioP2;P2;SDS_P1;SDS_P2;PMS_P1;PMS_P2;Temp;Humidity;BMP_temperature;BMP_pressure;BME280_temperature;BME280_humidity;BME280_pressure;Samples;Min_cycle;Max_cycle;Signal;HPM_P1;HPM_P2
2022/10/02 00:01:06;;;;;;;6.23;1.80;;;;;;;11.43;90.12;100473.06;5044002;28;20303;-84
2022/10/02 00:03:37;;;;;;;7.40;1.67;;;;;;;11.41;90.22;100472.31;5041143;28;20211;-84
2022/10/02 00:06:10;;;;;;;6.17;1.57;;;;;;;11.40;90.10;100473.28;5048595;28;20229;-85
2022/10/02 00:08:40;;;;;;;5.43;1.87;;;;;;;11.38;90.00;100473.38;5044451;28;20567;-84
2022/10/02 00:11:13;;;;;;;5.73;1.80;;;;;;;11.37;89.94;100463.66;5050201;28;20688;-84
2022/10/02 00:13:43;;;;;;;8.97;2.33;;;;;;;11.36;89.76;100458.44;5049230;28;20209;-83
2022/10/02 00:16:22;;;;;;;5.80;1.63;;;;;;;11.36;89.60;100461.13;5045793;28;20238;-84
2022/10/02 00:18:50;;;;;;;4.20;1.40;;;;;;;11.36;89.41;100469.09;5047238;28;20206;-84
2022/10/02 00:21:40;;;;;;;7.57;1.60;;;;;;;11.35;89.47;100489.59;5049631;28;20212;-84
2022/10/02 00:24:11;;;;;;;8.70;2.10;;;;;;;11.33;89.25;100478.16;5042092;28;20700;-83
2022/10/02 00:26:42;;;;;;;2.43;1.10;;;;;;;11.35;88.97;100475.41;5049451;28;20588;-84
2022/10/02 00:29:23;;;;;;;3.97;1.50;;;;;;;11.34;88.78;100482.53;5043860;28;20208;-84
2022/10/02 00:32:01;;;;;;;8.07;1.40;;;;;;;11.30;88.81;100474.84;5051789;28;20204;-83
2022/10/02 00:34:39;;;;;;;3.03;1.03;;;;;;;11.32;88.63;100481.78;5049505;28;20652;-83
2022/10/02 00:37:11;;;;;;;4.30;1.27;;;;;;;11.30;88.71;100485.53;5038601;28;20724;-83
2022/10/02 00:39:52;;;;;;;5.90;1.37;;;;;;;11.29;88.30;100487.34;5043606;28;20207;-83
2022/10/02 00:43:02;;;;;;;4.37;1.30;;;;;;;11.29;88.19;100482.00;5040076;28;20220;-83
2022/10/02 00:45:49;;;;;;;6.00;1.20;;;;;;;11.32;87.72;100486.28;4995946;28;20244;-84
2022/10/02 00:48:46;;;;;;;7.43;1.70;;;;;;;11.31;88.08;100493.41;5042442;28;20207;-83
2022/10/02 00:51:26;;;;;;;3.77;1.27;;;;;;;11.32;87.72;100496.94;5042099;28;20199;-84
2022/10/02 00:54:01;;;;;;;5.57;1.50;;;;;;;11.32;87.80;100495.13;5044554;28;20218;-84
2022/10/02 00:56:32;;;;;;;5.87;1.70;;;;;;;11.35;87.99;100496.72;5042280;28;20284;-84
2022/10/02 00:59:11;;;;;;;4.90;1.13;;;;;;;11.35;87.53;100491.41;5045584;28;20209;-84
2022/10/02 01:01:41;;;;;;;6.20;1.33;;;;;;;11.34;87.60;100495.03;5042709;28;20240;-84
2022/10/02 01:04:14;;;;;;;4.50;1.43;;;;;;;11.36;87.33;100488.63;5044373;28;20253;-84
2022/10/02 01:06:41;;;;;;;4.97;1.10;;;;;;;11.39;87.35;100504.41;5044319;28;20223;-84
2022/10/02 01:09:08;;;;;;;5.83;1.33;;;;;;;11.38;87.44;100496.53;5046819;28;20736;-84
2022/10/02 01:11:36;;;;;;;5.90;1.53;;;;;;;11.38;87.82;100502.72;5037996;28;20201;-84
2022/10/02 01:14:02;;;;;;;6.60;2.00;;;;;;;11.39;88.14;100501.75;5041733;28;20203;-83
2022/10/02 01:16:30;;;;;;;6.93;1.60;;;;;;;11.37;88.53;100501.00;5047010;28;20239;-83
2022/10/02 01:18:57;;;;;;;7.87;1.80;;;;;;;11.41;88.40;100499.84;5038900;28;20204;-83
2022/10/02 01:21:33;;;;;;;8.50;1.60;;;;;;;11.46;88.33;100494.19;5040014;28;20255;-83
2022/10/02 01:24:06;;;;;;;5.27;1.53;;;;;;;11.49;88.15;100504.63;5040608;28;20297;-84
2022/10/02 01:26:34;;;;;;;4.13;1.20;;;;;;;11.51;88.71;100500.03;5045267;28;20231;-83
2022/10/02 01:29:01;;;;;;;7.03;2.17;;;;;;;11.55;88.27;100506.03;5042236;28;20203;-83
2022/10/02 01:31:27;;;;;;;2.77;1.60;;;;;;;11.55;88.26;100517.53;5049235;28;20201;-83
2022/10/02 01:33:54;;;;;;;4.17;1.83;;;;;;;11.57;88.01;100507.63;5045383;28;20208;-83
2022/10/02 01:36:21;;;;;;;8.53;1.80;;;;;;;11.58;87.90;100514.66;5046080;28;20234;-82
2022/10/02 01:38:50;;;;;;;4.97;1.83;;;;;;;11.59;87.95;100510.19;5047128;28;20596;-83
2022/10/02 01:41:16;;;;;;;5.57;1.80;;;;;;;11.58;87.74;100514.66;5040727;28;20204;-82
2022/10/02 01:43:50;;;;;;;7.80;1.70;;;;;;;11.57;87.75;100512.09;5044967;28;20213;-83
2022/10/02 01:46:30;;;;;;;4.47;1.73;;;;;;;11.57;87.64;100518.28;5040874;28;20227;-82
2022/10/02 01:49:08;;;;;;;6.93;2.00;;;;;;;11.56;87.89;100511.25;5045873;28;20205;-83
2022/10/02 01:51:59;;;;;;;5.37;1.93;;;;;;;11.56;88.01;100516.59;5040897;28;20198;-83
2022/10/02 01:54:41;;;;;;;8.63;2.60;;;;;;;11.56;88.04;100523.72;5042756;28;20211;-84
2022/10/02 01:57:20;;;;;;;8.30;2.50;;;;;;;11.55;88.25;100527.34;5044170;28;20231;-84
2022/10/02 01:59:58;;;;;;;9.47;2.80;;;;;;;11.54;88.70;100518.50;5044359;28;20208;-84
2022/10/02 02:02:34;;;;;;;11.53;2.77;;;;;;;11.55;89.03;100525.53;5036151;28;20203;-84
2022/10/02 02:05:08;;;;;;;7.67;3.17;;;;;;;11.59;89.35;100512.84;5044829;28;20227;-84
2022/10/02 02:07:47;;;;;;;7.30;2.90;;;;;;;11.61;89.45;100529.63;5043159;28;20207;-84
2022/10/02 02:10:22;;;;;;;11.13;3.43;;;;;;;11.61;89.87;100533.13;5033104;28;20207;-84
2022/10/02 02:12:55;;;;;;;12.70;4.17;;;;;;;11.62;89.90;100528.66;5043057;28;20359;-83
2022/10/02 02:15:28;;;;;;;15.23;4.13;;;;;;;11.64;90.11;100524.91;5039699;28;20232;-84
2022/10/02 02:17:58;;;;;;;13.17;4.17;;;;;;;11.64;90.41;100532.94;5040459;28;20225;-84
2022/10/02 02:20:30;;;;;;;9.13;3.90;;;;;;;11.62;90.85;100526.84;5045616;28;20219;-83
2022/10/02 02:23:04;;;;;;;10.47;4.60;;;;;;;11.65;90.99;100526.59;5039655;28;20204;-84
2022/10/02 02:25:33;;;;;;;13.80;4.77;;;;;;;11.64;91.14;100519.59;5044969;28;20237;-82
2022/10/02 02:28:05;;;;;;;17.27;5.27;;;;;;;11.64;91.91;100519.59;5033504;28;20228;-83
2022/10/02 02:30:36;;;;;;;13.73;5.20;;;;;;;11.66;91.50;100517.63;5041294;28;21671;-82
2022/10/02 02:33:08;;;;;;;20.47;5.27;;;;;;;11.67;91.56;100518.50;5046600;28;20204;-83
2022/10/02 02:35:41;;;;;;;15.97;5.10;;;;;;;11.66;91.82;100514.97;5044863;28;20242;-82
2022/10/02 02:38:12;;;;;;;17.53;6.00;;;;;;;11.64;92.11;100506.25;5039641;28;20656;-85
2022/10/02 02:40:43;;;;;;;15.10;6.33;;;;;;;11.66;92.26;100514.13;5045973;28;20201;-82
2022/10/02 02:43:15;;;;;;;16.67;6.10;;;;;;;11.67;92.25;100515.81;5049237;28;20217;-84
2022/10/02 02:45:49;;;;;;;11.37;5.90;;;;;;;11.68;92.65;100507.72;5040884;28;20229;-84
2022/10/02 02:48:22;;;;;;;15.20;6.20;;;;;;;11.67;92.79;100524.69;5045072;28;20210;-84
2022/10/02 02:50:53;;;;;;;13.93;6.13;;;;;;;11.66;93.02;100528.31;5042565;28;20199;-84
2022/10/02 02:53:25;;;;;;;16.37;6.20;;;;;;;11.67;93.15;100519.34;5040125;28;20222;-85
2022/10/02 02:55:55;;;;;;;17.60;6.80;;;;;;;11.65;93.36;100521.25;5049143;28;20225;-85
2022/10/02 02:58:38;;;;;;;14.30;6.33;;;;;;;11.67;93.57;100534.50;5051410;28;20205;-85
2022/10/02 03:01:06;;;;;;;12.10;5.77;;;;;;;11.67;93.47;100534.50;5045355;28;20223;-86
2022/10/02 03:03:33;;;;;;;12.30;6.27;;;;;;;11.66;93.62;100533.66;5050856;28;20785;-85
2022/10/02 03:06:06;;;;;;;12.97;6.57;;;;;;;11.65;93.61;100537.28;5050475;28;20236;-84
2022/10/02 03:08:36;;;;;;;12.10;6.20;;;;;;;11.69;93.92;100548.59;5052384;28;20245;-85
2022/10/02 03:11:10;;;;;;;18.33;7.60;;;;;;;11.67;93.77;100542.50;5048197;28;20212;-85
2022/10/02 03:13:51;;;;;;;17.37;7.83;;;;;;;11.68;93.77;100547.72;5050953;28;20227;-85
2022/10/02 03:16:41;;;;;;;13.30;6.83;;;;;;;11.66;94.29;100543.47;5051838;28;20726;-85
2022/10/02 03:19:21;;;;;;;14.77;7.13;;;;;;;11.66;94.20;100544.31;5052639;28;20216;-85
2022/10/02 03:21:59;;;;;;;14.63;6.97;;;;;;;11.69;94.47;100548.59;5042796;28;20195;-85
2022/10/02 03:24:31;;;;;;;16.40;7.83;;;;;;;11.70;94.57;100544.97;5051756;28;20208;-85
2022/10/02 03:27:04;;;;;;;16.67;7.37;;;;;;;11.71;94.69;100549.34;5049507;28;20236;-84
2022/10/02 03:29:36;;;;;;;18.33;8.83;;;;;;;11.70;95.24;100550.28;5048254;28;20589;-85
2022/10/02 03:32:07;;;;;;;15.40;8.43;;;;;;;11.74;95.61;100546.47;5051159;28;20208;-85
2022/10/02 03:34:35;;;;;;;16.83;8.33;;;;;;;11.74;95.82;100536.66;5046247;28;20202;-86
2022/10/02 03:37:02;;;;;;;17.00;9.03;;;;;;;11.76;95.62;100556.09;5051517;28;20599;-85
2022/10/02 03:39:29;;;;;;;18.00;8.97;;;;;;;11.82;95.67;100542.31;5051703;28;20205;-85
2022/10/02 03:41:55;;;;;;;25.87;9.77;;;;;;;11.86;95.76;100529.63;5051812;28;20212;-85
2022/10/02 03:44:22;;;;;;;19.30;9.90;;;;;;;11.89;95.67;100548.09;5050709;28;20205;-85
2022/10/02 03:46:48;;;;;;;16.33;9.87;;;;;;;11.93;95.79;100551.41;5046289;28;20232;-85
2022/10/02 03:49:16;;;;;;;25.77;10.80;;;;;;;11.94;95.92;100558.44;5050408;28;20224;-85
2022/10/02 03:51:42;;;;;;;22.60;11.00;;;;;;;11.97;96.09;100548.41;5051771;28;20204;-85
2022/10/02 03:54:15;;;;;;;22.70;10.40;;;;;;;12.01;95.96;100549.03;5051375;28;20688;-84
2022/10/02 03:56:49;;;;;;;26.23;12.00;;;;;;;12.02;96.01;100537.38;5046008;28;20229;-86
2022/10/02 03:59:27;;;;;;;26.07;11.83;;;;;;;12.08;95.62;100526.28;5052571;28;20205;-86
2022/10/02 04:01:57;;;;;;;20.07;11.20;;;;;;;12.11;95.67;100518.06;5047162;28;20209;-85
2022/10/02 04:04:31;;;;;;;24.53;12.17;;;;;;;12.11;95.55;100512.72;5052779;28;20290;-85
2022/10/02 04:07:03;;;;;;;18.10;10.63;;;;;;;12.12;95.43;100517.94;5043222;28;20720;-86
2022/10/02 04:09:35;;;;;;;24.53;11.93;;;;;;;12.15;95.54;100519.56;5053135;28;20219;-85
2022/10/02 04:12:09;;;;;;;22.53;11.27;;;;;;;12.16;95.28;100523.94;5045072;28;20208;-83
2022/10/02 04:14:38;;;;;;;18.60;11.97;;;;;;;12.18;95.52;100529.16;5048263;28;20671;-83
2022/10/02 04:17:13;;;;;;;20.77;11.43;;;;;;;12.18;95.11;100530.84;5045483;28;20232;-83
2022/10/02 04:19:47;;;;;;;26.20;12.40;;;;;;;12.18;94.97;100530.03;5053965;28;20196;-83
2022/10/02 04:22:23;;;;;;;21.60;13.07;;;;;;;12.15;95.07;100547.09;5050891;28;20206;-82
2022/10/02 04:24:54;;;;;;;19.00;11.60;;;;;;;12.18;95.13;100540.69;5053488;28;20201;-84
2022/10/02 04:27:27;;;;;;;21.97;11.60;;;;;;;12.18;95.22;100531.84;5047096;28;20206;-82
2022/10/02 04:29:57;;;;;;;22.70;12.00;;;;;;;12.18;95.27;100547.84;5054943;28;20201;-83
2022/10/02 04:32:26;;;;;;;26.47;11.03;;;;;;;12.20;95.06;100538.75;5056238;28;20293;-83
2022/10/02 04:34:54;;;;;;;30.43;12.70;;;;;;;12.18;95.16;100556.72;5055646;28;20202;-83
2022/10/02 04:37:41;;;;;;;25.37;11.87;;;;;;;12.17;95.05;100565.69;5052040;28;20205;-85
2022/10/02 04:40:23;;;;;;;24.47;12.50;;;;;;;12.18;95.16;100557.53;5052410;28;20213;-84
2022/10/02 04:43:07;;;;;;;28.70;12.97;;;;;;;12.16;95.10;100555.97;5052126;28;20721;-83
2022/10/02 04:45:48;;;;;;;22.30;12.90;;;;;;;12.18;95.01;100554.03;5049527;28;20688;-83
2022/10/02 04:48:39;;;;;;;18.83;12.70;;;;;;;12.20;95.16;100538.75;5049258;28;20213;-83
2022/10/02 04:51:20;;;;;;;23.87;12.53;;;;;;;12.18;95.02;100553.19;5050622;28;20208;-83
2022/10/02 04:54:07;;;;;;;23.63;12.87;;;;;;;12.21;94.75;100543.13;5047765;28;20209;-83
2022/10/02 04:56:52;;;;;;;26.93;12.83;;;;;;;12.18;94.96;100546.84;5050472;28;20217;-83
2022/10/02 04:59:35;;;;;;;21.50;12.00;;;;;;;12.19;94.67;100563.72;5044506;28;20218;-83
2022/10/02 05:02:15;;;;;;;23.53;13.00;;;;;;;12.17;94.76;100557.69;5042563;28;20242;-83
2022/10/02 05:05:07;;;;;;;23.20;12.60;;;;;;;12.20;94.98;100564.59;5044682;28;20221;-83
2022/10/02 05:08:08;;;;;;;20.47;12.63;;;;;;;12.21;94.85;100564.47;5049939;28;20659;-82
2022/10/02 05:10:59;;;;;;;17.40;12.43;;;;;;;12.23;94.85;100583.06;5042335;28;20197;-83
2022/10/02 05:13:44;;;;;;;22.37;13.07;;;;;;;12.21;95.07;100591.19;5044000;28;20201;-83
2022/10/02 05:16:24;;;;;;;22.67;13.03;;;;;;;12.22;95.05;100597.38;5049493;28;20224;-83
2022/10/02 05:19:09;;;;;;;22.13;13.00;;;;;;;12.25;94.90;100602.50;5045097;28;20201;-83
2022/10/02 05:21:51;;;;;;;25.87;13.03;;;;;;;12.26;94.85;100593.53;5048727;28;20194;-83
2022/10/02 05:24:41;;;;;;;20.33;13.77;;;;;;;12.25;95.27;100594.50;5044827;28;20211;-83
2022/10/02 05:27:23;;;;;;;26.57;13.60;;;;;;;12.27;95.05;100589.91;5052533;28;20222;-83
2022/10/02 05:30:05;;;;;;;25.73;12.77;;;;;;;12.25;95.29;100590.00;5041512;28;20205;-83
2022/10/02 05:32:59;;;;;;;17.90;13.00;;;;;;;12.24;95.61;100590.13;5043914;28;20205;-83
2022/10/02 05:35:47;;;;;;;21.47;14.03;;;;;;;12.21;95.34;100583.16;5051016;28;20231;-84
2022/10/02 05:38:26;;;;;;;23.93;13.50;;;;;;;12.18;95.40;100581.56;5049630;28;20232;-84
2022/10/02 05:41:00;;;;;;;24.67;13.60;;;;;;;12.17;95.62;100581.72;5050360;28;20207;-84
2022/10/02 05:43:35;;;;;;;28.40;13.33;;;;;;;12.16;95.72;100578.19;5046020;28;20247;-84
2022/10/02 05:46:08;;;;;;;26.83;13.80;;;;;;;12.15;95.56;100587.16;5045349;28;20237;-85
2022/10/02 05:48:41;;;;;;;27.77;13.43;;;;;;;12.16;95.85;100590.69;5047103;28;20289;-84
2022/10/02 05:51:12;;;;;;;25.00;13.97;;;;;;;12.15;95.97;100596.97;5043506;28;20204;-84
2022/10/02 05:53:43;;;;;;;21.03;13.20;;;;;;;12.14;96.06;100593.44;5043805;28;20213;-85
2022/10/02 05:56:17;;;;;;;24.37;13.10;;;;;;;12.15;96.18;100591.63;5051948;28;20243;-85
2022/10/02 05:58:51;;;;;;;22.90;13.57;;;;;;;12.14;96.06;100608.63;5047965;28;20202;-85
2022/10/02 06:01:23;;;;;;;21.73;12.70;;;;;;;12.14;96.26;100603.28;5047126;28;20597;-86
2022/10/02 06:03:55;;;;;;;20.03;11.87;;;;;;;12.13;96.19;100606.91;5051508;28;20640;-85
2022/10/02 06:06:26;;;;;;;24.07;13.03;;;;;;;12.13;96.33;100618.44;5046508;28;20228;-84
2022/10/02 06:09:00;;;;;;;24.90;12.23;;;;;;;12.12;96.36;100615.88;5055812;28;20216;-85
2022/10/02 06:11:34;;;;;;;23.87;12.77;;;;;;;12.14;96.50;100616.63;5053382;28;20851;-86
2022/10/02 06:14:09;;;;;;;20.43;11.90;;;;;;;12.17;96.36;100608.41;5050947;28;20211;-85
2022/10/02 06:16:39;;;;;;;24.33;12.27;;;;;;;12.18;96.35;100602.94;5044163;28;20215;-85
2022/10/02 06:19:15;;;;;;;22.37;12.00;;;;;;;12.19;96.05;100606.44;5052470;28;20779;-84
2022/10/02 06:21:48;;;;;;;24.43;11.63;;;;;;;12.19;96.31;100611.78;5055581;28;20205;-85
2022/10/02 06:24:21;;;;;;;18.47;10.77;;;;;;;12.23;96.28;100601.75;5052342;28;20219;-85
2022/10/02 06:26:55;;;;;;;15.93;10.20;;;;;;;12.24;95.93;100600.78;5050587;28;20262;-87
2022/10/02 06:29:28;;;;;;;23.00;10.27;;;;;;;12.27;95.74;100601.44;5057096;28;20708;-85
2022/10/02 06:32:04;;;;;;;16.37;8.40;;;;;;;12.27;95.81;100604.09;5051352;28;20297;-85
2022/10/02 06:34:31;;;;;;;16.53;9.13;;;;;;;12.26;95.34;100602.41;5055195;28;20207;-84
2022/10/02 06:37:13;;;;;;;15.13;9.97;;;;;;;12.28;95.04;100605.81;5053194;28;20626;-85
2022/10/02 06:39:56;;;;;;;20.30;8.77;;;;;;;12.29;94.77;100596.00;5051610;28;20200;-84
2022/10/02 06:42:40;;;;;;;16.87;9.47;;;;;;;12.29;94.63;100607.53;5054289;28;20225;-85
2022/10/02 06:45:15;;;;;;;18.97;8.97;;;;;;;12.31;94.33;100594.91;5054824;28;20197;-85
2022/10/02 06:47:56;;;;;;;18.53;9.53;;;;;;;12.33;94.59;100603.69;5054096;28;20318;-85
2022/10/02 06:50:38;;;;;;;12.20;8.60;;;;;;;12.35;94.71;100600.91;5054307;28;20213;-85
2022/10/02 06:53:18;;;;;;;17.43;9.13;;;;;;;12.42;94.48;100610.16;5050755;28;20628;-85
2022/10/02 06:55:51;;;;;;;18.37;9.23;;;;;;;12.49;94.73;100614.97;5050742;28;20229;-85
2022/10/02 06:58:47;;;;;;;18.03;8.90;;;;;;;12.55;94.38;100620.81;5055881;28;20202;-85
2022/10/02 07:01:25;;;;;;;14.47;8.83;;;;;;;12.58;94.49;100618.78;5048605;28;20208;-85
2022/10/02 07:04:08;;;;;;;15.00;9.03;;;;;;;12.62;94.55;100622.94;5045303;28;20229;-86
2022/10/02 07:06:44;;;;;;;15.13;8.50;;;;;;;12.68;94.34;100619.84;5049280;28;20230;-85
2022/10/02 07:09:55;;;;;;;14.57;9.37;;;;;;;12.73;94.32;100631.03;5051062;28;20194;-86
2022/10/02 07:12:52;;;;;;;16.63;8.67;;;;;;;12.76;94.24;100628.13;5008121;28;20209;-85
2022/10/02 07:15:37;;;;;;;14.90;8.40;;;;;;;12.81;93.94;100614.44;5008646;28;20276;-84
2022/10/02 07:18:18;;;;;;;16.60;8.70;;;;;;;12.85;93.40;100614.13;5042705;28;20224;-85
2022/10/02 07:20:54;;;;;;;14.93;7.73;;;;;;;12.85;93.38;100621.28;5052530;28;20225;-84
2022/10/02 07:23:51;;;;;;;12.47;8.37;;;;;;;12.86;93.38;100620.31;5051326;28;20220;-84
2022/10/02 07:26:29;;;;;;;21.90;8.77;;;;;;;12.86;93.30;100613.16;5039598;28;20681;-85
2022/10/02 07:29:11;;;;;;;19.03;8.63;;;;;;;12.92;93.32;100624.34;5054000;28;20193;-85
2022/10/02 07:31:50;;;;;;;16.67;8.80;;;;;;;12.99;93.98;100622.94;5052746;28;20215;-84
2022/10/02 07:34:28;;;;;;;16.67;7.93;;;;;;;13.07;93.68;100629.44;5046145;28;20204;-85
2022/10/02 07:37:05;;;;;;;20.40;9.00;;;;;;;13.15;93.86;100635.09;5053161;28;20224;-85
2022/10/02 07:39:47;;;;;;;15.27;7.83;;;;;;;13.26;93.83;100628.06;5050080;28;20205;-84
2022/10/02 07:42:33;;;;;;;19.63;9.10;;;;;;;13.36;93.93;100643.34;5053955;28;20220;-85
2022/10/02 07:45:22;;;;;;;15.27;9.30;;;;;;;13.45;93.73;100644.44;5042556;28;20863;-85
2022/10/02 07:48:05;;;;;;;11.50;7.80;;;;;;;13.56;93.30;100639.16;5046172;28;20221;-84
2022/10/02 07:50:40;;;;;;;15.47;8.10;;;;;;;13.67;92.88;100647.22;5043647;28;20205;-86
2022/10/02 07:53:16;;;;;;;16.23;8.40;;;;;;;13.76;92.22;100659.91;5045545;28;20213;-86
2022/10/02 07:55:48;;;;;;;15.93;8.20;;;;;;;13.83;92.10;100660.28;5041866;28;20233;-84
2022/10/02 07:58:19;;;;;;;18.67;8.43;;;;;;;13.91;91.65;100663.22;5042103;28;20201;-84
2022/10/02 08:00:50;;;;;;;17.97;8.27;;;;;;;13.98;90.64;100671.63;5046842;28;20194;-85
2022/10/02 08:03:23;;;;;;;16.87;8.50;;;;;;;14.05;90.59;100678.22;5042765;28;20198;-85
2022/10/02 08:05:52;;;;;;;14.37;8.10;;;;;;;14.09;90.00;100674.34;5047400;28;20225;-85
2022/10/02 08:08:25;;;;;;;11.47;7.50;;;;;;;14.14;89.81;100677.53;5041870;28;20688;-85
2022/10/02 08:10:57;;;;;;;10.37;8.40;;;;;;;14.18;89.36;100681.66;5043832;28;20206;-85
2022/10/02 08:13:31;;;;;;;16.73;9.27;;;;;;;14.22;89.41;100678.63;5039103;28;20205;-85
2022/10/02 08:15:57;;;;;;;14.23;9.07;;;;;;;14.31;89.04;100681.56;5045691;28;20704;-84
2022/10/02 08:18:32;;;;;;;17.87;9.80;;;;;;;14.42;88.79;100678.91;5045614;28;20213;-83
2022/10/02 08:20:59;;;;;;;18.67;9.90;;;;;;;14.48;88.73;100670.41;5039864;28;20222;-85
2022/10/02 08:23:30;;;;;;;16.63;9.60;;;;;;;14.50;87.70;100676.50;5042491;28;20206;-85
2022/10/02 08:26:06;;;;;;;11.50;8.33;;;;;;;14.50;87.09;100689.91;5042746;28;20410;-85
2022/10/02 08:28:41;;;;;;;13.57;7.93;;;;;;;14.51;87.16;100692.44;5048079;28;20205;-85
2022/10/02 08:31:11;;;;;;;13.23;8.23;;;;;;;14.52;86.59;100691.47;5043591;28;20214;-84
2022/10/02 08:33:39;;;;;;;15.77;8.33;;;;;;;14.52;86.49;100694.13;5041606;28;20207;-84
2022/10/02 08:36:33;;;;;;;11.37;6.63;;;;;;;14.58;86.63;100684.78;5042998;28;20232;-86
2022/10/02 08:39:17;;;;;;;11.37;6.50;;;;;;;14.69;86.61;100686.63;5041191;28;20207;-85
2022/10/02 08:42:16;;;;;;;10.90;6.73;;;;;;;14.77;85.77;100694.88;5040275;28;20214;-85
2022/10/02 08:45:15;;;;;;;12.93;7.30;;;;;;;14.90;85.53;100691.06;5028212;28;20206;-86
2022/10/02 08:48:23;;;;;;;13.17;7.00;;;;;;;14.99;84.95;100691.31;5043577;28;20225;-86
2022/10/02 08:51:20;;;;;;;15.07;7.00;;;;;;;15.10;84.58;100708.25;5037672;28;20657;-85
2022/10/02 08:54:10;;;;;;;17.00;7.30;;;;;;;15.11;83.22;100704.59;5040439;28;20218;-85
2022/10/02 08:56:49;;;;;;;16.80;6.60;;;;;;;15.12;82.84;100705.44;5043806;28;20225;-85
2022/10/02 08:59:42;;;;;;;12.70;6.70;;;;;;;15.17;82.82;100709.47;5038620;28;20198;-85
2022/10/02 09:03:08;;;;;;;11.77;5.87;;;;;;;15.31;82.83;100712.84;5050116;28;20217;-85
2022/10/02 09:06:08;;;;;;;12.37;5.47;;;;;;;15.42;82.57;100715.47;5041099;28;20234;-85
2022/10/02 09:09:20;;;;;;;11.17;4.77;;;;;;;15.53;82.23;100702.03;5043655;28;20722;-85
2022/10/02 09:12:19;;;;;;;9.20;4.20;;;;;;;15.63;80.56;100711.06;5042414;28;20214;-85
2022/10/02 09:14:49;;;;;;;9.00;4.00;;;;;;;15.70;79.86;100704.19;5041344;28;20207;-85
2022/10/02 09:17:32;;;;;;;9.63;3.73;;;;;;;15.80;79.46;100706.94;5044497;28;20233;-85
2022/10/02 09:20:23;;;;;;;11.47;4.13;;;;;;;15.87;78.02;100706.31;5033171;28;20230;-84
2022/10/02 09:23:29;;;;;;;10.03;3.40;;;;;;;15.94;77.07;100704.81;5047224;28;20202;-86
2022/10/02 09:26:07;;;;;;;8.50;3.87;;;;;;;16.03;76.24;100705.00;5043448;28;20219;-86
2022/10/02 09:29:21;;;;;;;9.87;4.13;;;;;;;16.13;76.12;100701.41;5041815;28;20225;-85
2022/10/02 09:32:42;;;;;;;7.53;3.53;;;;;;;16.26;75.38;100703.91;5044890;28;20672;-85
2022/10/02 09:35:38;;;;;;;10.57;3.77;;;;;;;16.34;74.15;100704.06;5041642;28;20212;-85
2022/10/02 09:38:42;;;;;;;5.87;3.03;;;;;;;16.43;73.42;100699.75;5048178;28;20662;-84
2022/10/02 09:41:51;;;;;;;11.80;3.60;;;;;;;16.56;73.17;100709.31;5046660;28;20296;-84
2022/10/02 09:44:55;;;;;;;8.63;2.97;;;;;;;16.65;71.83;100696.94;5049063;28;20205;-83
2022/10/02 09:48:07;;;;;;;6.17;2.80;;;;;;;16.70;70.63;100713.50;5053711;28;20219;-84
2022/10/02 09:51:03;;;;;;;7.47;2.63;;;;;;;16.78;70.65;100710.16;5054359;28;20234;-83
2022/10/02 09:53:58;;;;;;;7.77;2.60;;;;;;;16.81;68.96;100708.03;5047711;28;20457;-83
2022/10/02 09:56:58;;;;;;;7.53;3.00;;;;;;;16.88;68.66;100713.72;5048765;28;20223;-83
2022/10/02 09:59:47;;;;;;;8.73;3.03;;;;;;;16.95;68.54;100709.50;5043164;28;20587;-83
2022/10/02 10:02:35;;;;;;;9.50;2.27;;;;;;;17.08;68.93;100704.72;5050654;28;20218;-84
2022/10/02 10:05:24;;;;;;;7.50;2.23;;;;;;;17.17;67.38;100711.13;5045637;28;20199;-83
2022/10/02 10:08:32;;;;;;;7.43;2.67;;;;;;;17.20;66.77;100710.81;5049866;28;20226;-83
2022/10/02 10:11:20;;;;;;;9.90;2.83;;;;;;;17.28;66.23;100701.09;5048362;28;20236;-83
2022/10/02 10:14:13;;;;;;;5.00;1.77;;;;;;;17.37;65.48;100694.03;5047304;28;20787;-83
2022/10/02 10:17:08;;;;;;;6.37;2.17;;;;;;;17.40;64.42;100704.50;5051010;28;20241;-83
2022/10/02 10:20:03;;;;;;;9.27;1.93;;;;;;;17.40;63.36;100706.31;5050935;28;20301;-83
2022/10/02 10:22:57;;;;;;;6.70;1.70;;;;;;;17.45;62.73;100709.47;5048767;28;20203;-82
2022/10/02 10:26:20;;;;;;;8.33;2.03;;;;;;;17.44;61.75;100707.75;5050643;28;20258;-83
2022/10/02 10:29:39;;;;;;;5.27;2.20;;;;;;;17.44;61.48;100713.16;5011482;28;20226;-84
2022/10/02 10:32:39;;;;;;;7.43;2.50;;;;;;;17.42;60.80;100709.75;5007703;28;20210;-85
2022/10/02 10:35:31;;;;;;;8.90;2.50;;;;;;;17.36;60.75;100713.84;5053292;28;20795;-84
2022/10/02 10:38:31;;;;;;;5.63;2.10;;;;;;;17.32;60.59;100723.19;5052007;28;20388;-84
2022/10/02 10:41:46;;;;;;;8.17;2.00;;;;;;;17.27;60.30;100715.53;5049442;28;20490;-86
2022/10/02 10:44:42;;;;;;;6.60;1.97;;;;;;;17.20;59.72;100726.97;5050823;28;20217;-84
2022/10/02 10:47:38;;;;;;;5.53;1.60;;;;;;;17.14;59.33;100725.72;5031469;28;20239;-83
2022/10/02 10:50:45;;;;;;;4.87;1.50;;;;;;;17.06;58.97;100720.13;5051700;28;20213;-85
2022/10/02 10:53:21;;;;;;;7.97;2.00;;;;;;;17.02;58.93;100732.16;5047574;28;20386;-84
2022/10/02 10:56:11;;;;;;;5.93;1.70;;;;;;;16.99;59.00;100727.06;5053326;28;20222;-84
2022/10/02 10:58:57;;;;;;;5.70;1.63;;;;;;;16.98;58.93;100730.75;5056549;28;20200;-84
2022/10/02 11:01:39;;;;;;;4.80;1.60;;;;;;;16.95;58.63;100729.19;5054138;28;20202;-85
2022/10/02 11:04:52;;;;;;;6.13;1.30;;;;;;;16.95;58.43;100721.09;5056415;28;20198;-84
2022/10/02 11:07:36;;;;;;;5.73;1.80;;;;;;;16.96;58.20;100721.97;5021949;28;20231;-84
2022/10/02 11:10:18;;;;;;;5.23;1.60;;;;;;;16.97;57.89;100718.28;5048290;28;20698;-84
2022/10/02 11:13:08;;;;;;;5.33;1.53;;;;;;;16.99;57.64;100719.00;5050808;28;20226;-84
2022/10/02 11:16:06;;;;;;;8.83;2.10;;;;;;;17.04;58.42;100716.72;5054487;28;20258;-84
2022/10/02 11:18:50;;;;;;;7.17;2.23;;;;;;;17.11;59.28;100711.66;5055903;28;20201;-84
2022/10/02 11:21:36;;;;;;;5.33;2.13;;;;;;;17.20;60.08;100697.38;5052338;28;20656;-84
2022/10/02 11:24:20;;;;;;;7.40;2.00;;;;;;;17.27;60.19;100702.06;5049911;28;20222;-85
2022/10/02 11:26:59;;;;;;;6.97;2.17;;;;;;;17.28;59.75;100702.91;5051706;28;20230;-85
2022/10/02 11:29:50;;;;;;;8.50;2.03;;;;;;;17.24;59.96;100705.03;5054604;28;20202;-85
2022/10/02 11:32:35;;;;;;;7.70;2.30;;;;;;;17.23;59.89;100708.72;5055287;28;20210;-85
2022/10/02 11:35:22;;;;;;;5.70;2.30;;;;;;;17.22;59.93;100717.78;5051343;28;20206;-85
2022/10/02 11:38:17;;;;;;;4.83;1.77;;;;;;;17.19;59.80;100712.69;5053341;28;20194;-85
2022/10/02 11:41:18;;;;;;;5.93;2.10;;;;;;;17.16;59.50;100712.97;5048606;28;20210;-85
2022/10/02 11:44:04;;;;;;;4.30;1.67;;;;;;;17.10;58.85;100713.50;5046798;28;20297;-84
2022/10/02 11:46:51;;;;;;;6.73;1.90;;;;;;;17.14;59.84;100720.31;5055560;28;20232;-85
2022/10/02 11:49:57;;;;;;;7.30;2.40;;;;;;;17.23;60.00;100714.09;5052598;28;20293;-85
2022/10/02 11:52:54;;;;;;;5.60;1.70;;;;;;;17.31;60.15;100716.09;5052765;28;20288;-84
2022/10/02 11:55:37;;;;;;;5.40;1.93;;;;;;;17.41;60.53;100711.56;5051129;28;21003;-84
2022/10/02 11:58:15;;;;;;;6.00;1.80;;;;;;;17.54;60.87;100714.03;5044807;28;20192;-85
2022/10/02 12:01:07;;;;;;;8.13;2.30;;;;;;;17.58;60.22;100710.88;5048378;28;20631;-85
2022/10/02 12:03:49;;;;;;;6.30;2.10;;;;;;;17.61;60.01;100716.00;5045420;28;20837;-84
2022/10/02 12:06:24;;;;;;;6.63;2.03;;;;;;;17.60;59.74;100714.28;5046711;28;20232;-84
2022/10/02 12:09:05;;;;;;;6.50;2.33;;;;;;;17.57;59.84;100721.78;5047910;28;20225;-85
2022/10/02 12:11:40;;;;;;;5.83;2.00;;;;;;;17.55;60.36;100738.13;5050344;28;20199;-84
2022/10/02 12:14:19;;;;;;;5.17;1.70;;;;;;;17.50;60.58;100766.44;5048339;28;20781;-85
2022/10/02 12:16:55;;;;;;;5.17;0.90;;;;;;;17.26;59.23;100775.72;5047566;28;20228;-83
2022/10/02 12:19:36;;;;;;;5.10;1.10;;;;;;;16.99;60.04;100773.66;5049765;28;20236;-81
2022/10/02 12:28:12;;;;;;;5.37;1.10;;;;;;;16.12;64.20;100779.47;5015603;28;20611;-81